Time;durP1;ratioP1;P1;durP2;ratioP2;P2;SDS_P1;SDS_P2;PMS_P1;PMS_P2;Temp;Humidity;BMP_temperature;BMP_pressure;BME280_temperature;BME280_humidity;BME280_pressure;Samples;Min_cycle;Max_cycle;Signal;HPM_P1;HPM_P2
2023/07/30 05:15:38;;;;;;;4.35;3.90;;;23.90;99.90;;;;;;6281706;27;92961;-90
2023/07/30 05:47:32;;;;;;;4.50;4.10;;;23.90;99.90;;;;;;6286610;27;92342;-90
2023/07/30 11:26:02;;;;;;;3.45;3.00;;;24.10;99.90;;;;;;6283173;27;92021;-90
2023/07/30 11:37:05;;;;;;;2.78;2.58;;;24.10;99.90;;;;;;6282467;27;91972;-90
2023/07/30 11:44:23;;;;;;;3.10;2.80;;;24.00;99.90;;;;;;6281528;27;93453;-90
2023/07/30 12:12:20;;;;;;;3.33;2.78;;;24.10;99.90;;;;;;6281219;27;92074;-90
2023/07/30 13:02:19;;;;;;;3.50;3.20;;;24.10;99.90;;;;;;6285228;27;92263;-90
2023/07/30 13:56:27;;;;;;;5.18;3.50;;;24.10;99.90;;;;;;6282605;27;80272;-71
2023/07/30 13:59:31;;;;;;;5.68;3.70;;;24.10;99.90;;;;;;6258133;27;82498;-72
2023/07/30 14:02:35;;;;;;;5.90;3.55;;;24.10;99.90;;;;;;6255891;27;81511;-72
2023/07/30 14:05:38;;;;;;;4.57;3.78;;;24.10;99.90;;;;;;6258704;27;81207;-72
2023/07/30 14:08:42;;;;;;;5.95;3.50;;;24.10;99.90;;;;;;6257936;27;81274;-72
2023/07/30 14:11:46;;;;;;;4.18;3.25;;;24.10;99.90;;;;;;6258164;27;82801;-72
2023/07/30 14:14:50;;;;;;;4.00;3.10;;;24.10;99.90;;;;;;6255491;27;81297;-71
2023/07/30 14:17:54;;;;;;;4.93;3.47;;;24.10;99.90;;;;;;6252364;27;81298;-71
2023/07/30 14:20:57;;;;;;;4.25;3.60;;;24.10;99.90;;;;;;6250882;27;81814;-72
2023/07/30 14:24:00;;;;;;;6.88;3.90;;;24.10;99.90;;;;;;6247085;27;80704;-71
2023/07/30 14:27:05;;;;;;;5.63;4.18;;;24.10;99.90;;;;;;6255007;27;81320;-71
2023/07/30 14:30:09;;;;;;;4.72;3.67;;;24.10;99.90;;;;;;6255785;27;82792;-71
2023/07/30 14:33:12;;;;;;;4.70;3.60;;;24.00;99.90;;;;;;6254155;27;82839;-71
2023/07/30 14:36:14;;;;;;;6.22;3.95;;;24.10;99.90;;;;;;6253941;27;81130;-71
2023/07/30 14:39:16;;;;;;;6.85;3.47;;;24.00;99.90;;;;;;6254778;27;82362;-71
2023/07/30 14:42:21;;;;;;;4.47;3.60;;;24.10;99.90;;;;;;6254216;27;81328;-72
2023/07/30 14:45:24;;;;;;;4.63;3.55;;;24.10;99.90;;;;;;6254741;27;80299;-72
2023/07/30 14:48:28;;;;;;;5.55;3.97;;;24.10;99.90;;;;;;6256817;27;80324;-71
2023/07/30 14:51:31;;;;;;;4.05;3.40;;;24.00;99.90;;;;;;6259079;27;80208;-71
2023/07/30 14:54:33;;;;;;;5.78;3.95;;;24.10;99.90;;;;;;6261003;27;81043;-71
2023/07/30 14:57:37;;;;;;;4.78;3.55;;;24.00;99.90;;;;;;6261133;27;81573;-71
2023/07/30 15:00:41;;;;;;;4.45;3.67;;;24.10;99.90;;;;;;6254011;27;82848;-71
2023/07/30 15:03:44;;;;;;;3.75;3.05;;;24.10;99.90;;;;;;6253592;27;80330;-71
2023/07/30 15:06:48;;;;;;;4.47;3.30;;;24.10;99.90;;;;;;6241006;27;81236;-72
2023/07/30 15:09:51;;;;;;;4.40;3.40;;;24.10;99.90;;;;;;6237115;28;81023;-72
2023/07/30 15:12:55;;;;;;;4.20;3.38;;;24.10;99.90;;;;;;6236648;28;82350;-72
2023/07/30 15:15:58;;;;;;;7.43;3.65;;;24.10;99.90;;;;;;6237412;28;80308;-71
2023/07/30 15:19:01;;;;;;;5.93;3.30;;;24.10;99.90;;;;;;6238849;28;82243;-72
2023/07/30 15:22:05;;;;;;;6.60;3.85;;;24.10;99.90;;;;;;6237562;28;81564;-71
2023/07/30 15:25:08;;;;;;;12.98;4.88;;;24.10;99.90;;;;;;6236169;28;81205;-71
2023/07/30 15:28:12;;;;;;;8.45;4.20;;;24.10;99.90;;;;;;6231963;28;81620;-70
2023/07/30 15:31:15;;;;;;;7.35;3.97;;;24.10;99.90;;;;;;6235758;28;81076;-70
2023/07/30 15:34:19;;;;;;;10.90;4.45;;;24.10;99.90;;;;;;6236741;28;81189;-70
2023/07/30 15:37:22;;;;;;;10.38;3.88;;;24.10;99.90;;;;;;6243367;28;81632;-70
2023/07/30 15:40:26;;;;;;;8.20;4.25;;;24.10;99.90;;;;;;6237782;28;81484;-71
2023/07/30 15:43:31;;;;;;;9.23;3.83;;;24.10;99.90;;;;;;6240062;28;82102;-71
2023/07/30 15:46:34;;;;;;;10.05;3.85;;;24.10;99.90;;;;;;6236839;28;81449;-70
2023/07/30 15:49:38;;;;;;;6.20;3.70;;;24.10;99.90;;;;;;6248348;28;81574;-71
2023/07/30 15:52:41;;;;;;;10.38;3.50;;;24.10;99.90;;;;;;6238470;27;81780;-71
2023/07/30 15:55:45;;;;;;;5.57;3.45;;;24.10;99.90;;;;;;6231008;28;81475;-71
2023/07/30 15:58:49;;;;;;;5.10;3.00;;;24.10;99.90;;;;;;6230996;28;81314;-71
2023/07/30 16:01:54;;;;;;;3.78;3.28;;;24.10;99.90;;;;;;6229084;28;81287;-70
2023/07/30 16:04:59;;;;;;;3.92;2.75;;;24.10;99.90;;;;;;6224500;28;81361;-70
2023/07/30 16:08:02;;;;;;;6.00;3.13;;;24.10;99.90;;;;;;6228752;28;81453;-70
2023/07/30 16:11:07;;;;;;;5.68;3.20;;;24.10;99.90;;;;;;6232865;28;81762;-70
2023/07/30 16:14:12;;;;;;;5.13;3.25;;;24.10;99.90;;;;;;6238866;28;81563;-71
2023/07/30 16:17:15;;;;;;;5.57;3.03;;;24.10;99.90;;;;;;6221699;28;80358;-70
2023/07/30 16:20:19;;;;;;;4.50;2.72;;;24.10;99.90;;;;;;6226224;28;81879;-71
2023/07/30 16:23:23;;;;;;;4.70;2.65;;;24.10;99.90;;;;;;6235469;28;81365;-71
2023/07/30 16:26:27;;;;;;;4.47;2.53;;;24.10;99.90;;;;;;6237412;28;82939;-71
2023/07/30 16:29:32;;;;;;;3.58;2.65;;;24.10;99.90;;;;;;6241927;28;80255;-70
2023/07/30 16:32:36;;;;;;;4.18;2.25;;;24.10;99.90;;;;;;6245783;27;81104;-71
2023/07/30 16:35:39;;;;;;;3.08;2.28;;;24.10;99.90;;;;;;6242649;27;81264;-71
2023/07/30 16:38:43;;;;;;;4.45;2.63;;;24.10;99.90;;;;;;6236245;28;81491;-71
2023/07/30 16:41:47;;;;;;;4.85;2.92;;;24.10;99.90;;;;;;6245555;27;80571;-71
2023/07/30 16:44:52;;;;;;;3.53;2.50;;;24.10;99.90;;;;;;6245361;27;81663;-71
2023/07/30 16:47:55;;;;;;;3.58;2.25;;;24.10;99.90;;;;;;6226369;28;81194;-70
2023/07/30 16:50:59;;;;;;;4.00;2.47;;;23.90;99.90;;;;;;6246970;28;80578;-71
2023/07/30 16:54:03;;;;;;;3.33;2.55;;;24.10;99.90;;;;;;6237432;28;81270;-71
2023/07/30 16:57:07;;;;;;;3.50;2.35;;;24.10;99.90;;;;;;6243340;28;82459;-71
2023/07/30 17:00:14;;;;;;;3.00;2.47;;;24.10;99.90;;;;;;6252076;28;81283;-70
2023/07/30 17:03:17;;;;;;;3.10;2.70;;;24.10;99.90;;;;;;6243713;27;81223;-70
2023/07/30 17:06:21;;;;;;;2.85;2.50;;;24.10;99.90;;;;;;6224270;27;80348;-70
2023/07/30 17:09:24;;;;;;;5.10;3.35;;;24.10;99.90;;;;;;6222906;28;81148;-70
2023/07/30 17:12:28;;;;;;;5.97;3.03;;;24.10;99.90;;;;;;6239613;28;81552;-70
2023/07/30 17:15:33;;;;;;;3.72;2.75;;;24.10;99.90;;;;;;6246132;28;81327;-70
2023/07/30 17:18:37;;;;;;;2.63;2.42;;;24.10;99.90;;;;;;6241614;27;81347;-70
2023/07/30 17:21:41;;;;;;;3.08;2.50;;;24.10;99.90;;;;;;6227180;28;81315;-70
2023/07/30 17:24:44;;;;;;;2.92;2.50;;;24.10;99.90;;;;;;6233792;28;81093;-70
2023/07/30 17:27:48;;;;;;;4.20;3.00;;;24.10;99.90;;;;;;6226841;28;80946;-70
2023/07/30 17:30:53;;;;;;;3.60;2.90;;;24.10;99.90;;;;;;6234829;28;81196;-70
2023/07/30 17:33:58;;;;;;;3.65;2.80;;;24.10;99.90;;;;;;6232389;28;81193;-71
2023/07/30 17:37:03;;;;;;;6.53;3.60;;;24.10;99.90;;;;;;6247219;28;81630;-70
2023/07/30 17:40:09;;;;;;;6.65;3.50;;;24.10;99.90;;;;;;6245872;27;81488;-70
2023/07/30 17:43:13;;;;;;;3.92;2.95;;;24.10;99.90;;;;;;6244786;28;81567;-70
2023/07/30 17:46:20;;;;;;;3.92;2.92;;;24.10;99.90;;;;;;6220180;28;80221;-70
2023/07/30 17:49:24;;;;;;;2.97;2.65;;;24.10;99.90;;;;;;6235307;28;80358;-70
2023/07/30 17:52:27;;;;;;;4.35;2.88;;;24.10;99.90;;;;;;6234313;28;81608;-70
2023/07/30 17:55:31;;;;;;;2.70;2.50;;;24.10;99.90;;;;;;6221348;28;80285;-70
2023/07/30 17:58:34;;;;;;;3.33;3.00;;;24.10;99.90;;;;;;6234478;28;82508;-71
2023/07/30 18:01:40;;;;;;;2.95;2.53;;;24.10;99.90;;;;;;6237920;28;81263;-70
2023/07/30 18:04:44;;;;;;;3.78;2.85;;;24.10;99.90;;;;;;6218046;28;80919;-71
2023/07/30 18:07:48;;;;;;;2.95;2.50;;;24.10;99.90;;;;;;6239395;27;80224;-70
2023/07/30 18:10:52;;;;;;;6.22;3.47;;;24.10;99.90;;;;;;6224941;28;81559;-70
2023/07/30 18:13:56;;;;;;;5.57;3.25;;;24.10;99.90;;;;;;6248155;28;80375;-70
2023/07/30 18:17:01;;;;;;;4.20;2.88;;;24.10;99.90;;;;;;6231578;28;80449;-70
2023/07/30 18:20:06;;;;;;;3.25;2.70;;;24.10;99.90;;;;;;6211422;28;81310;-71
2023/07/30 18:23:10;;;;;;;4.50;2.60;;;24.10;99.90;;;;;;6242451;28;81281;-71
2023/07/30 18:26:14;;;;;;;2.75;2.33;;;24.10;99.90;;;;;;6238785;28;80255;-71
2023/07/30 18:29:19;;;;;;;2.83;2.58;;;24.10;99.90;;;;;;6237178;27;81608;-70
2023/07/30 18:32:26;;;;;;;2.95;2.53;;;24.10;99.90;;;;;;6233607;28;81066;-70
2023/07/30 18:35:30;;;;;;;2.70;2.50;;;24.10;99.90;;;;;;6233027;28;81298;-71
2023/07/30 18:38:34;;;;;;;6.07;3.17;;;24.10;99.90;;;;;;6233008;28;80880;-70
2023/07/30 18:41:38;;;;;;;4.53;2.75;;;24.10;99.90;;;;;;6247878;28;81328;-70
2023/07/30 18:44:42;;;;;;;2.72;2.30;;;24.10;99.90;;;;;;6236579;28;81269;-71
2023/07/30 18:47:48;;;;;;;3.40;2.30;;;24.10;99.90;;;;;;6228226;28;82010;-70
2023/07/30 18:50:52;;;;;;;3.40;2.33;;;24.10;99.90;;;;;;6238022;28;81025;-71
2023/07/30 18:53:56;;;;;;;3.63;2.40;;;24.10;99.90;;;;;;6236223;28;81787;-70
2023/07/30 18:57:00;;;;;;;3.38;2.47;;;24.10;99.90;;;;;;6225358;28;81649;-70
2023/07/30 19:00:05;;;;;;;3.35;2.05;;;24.10;99.90;;;;;;6244401;28;80927;-70
2023/07/30 19:03:11;;;;;;;3.60;2.10;;;24.10;99.90;;;;;;6247535;28;83045;-70
2023/07/30 19:06:14;;;;;;;2.67;2.10;;;24.10;99.90;;;;;;6247457;27;82232;-70
2023/07/30 19:09:18;;;;;;;3.15;2.10;;;24.10;99.90;;;;;;6249544;27;82928;-70
2023/07/30 19:12:22;;;;;;;5.38;2.70;;;24.10;99.90;;;;;;6236317;28;83124;-70
2023/07/30 19:15:26;;;;;;;2.97;2.20;;;24.10;99.90;;;;;;6248656;28;83753;-70
2023/07/30 19:18:32;;;;;;;2.58;1.90;;;24.10;99.90;;;;;;6225745;28;83119;-70
2023/07/30 19:21:35;;;;;;;2.78;2.05;;;24.10;99.90;;;;;;6241769;28;82971;-70
2023/07/30 19:24:39;;;;;;;3.08;2.10;;;24.10;99.90;;;;;;6238983;27;81979;-71
2023/07/30 19:27:42;;;;;;;2.95;1.98;;;24.10;99.90;;;;;;6247983;28;82964;-71
2023/07/30 19:30:46;;;;;;;2.47;2.10;;;24.10;99.90;;;;;;6236242;28;82961;-70
2023/07/30 19:33:51;;;;;;;2.75;2.17;;;24.10;99.90;;;;;;6239168;28;82948;-71
2023/07/30 19:36:55;;;;;;;3.97;2.33;;;24.00;99.90;;;;;;6234481;28;82585;-70
2023/07/30 19:39:58;;;;;;;3.25;2.22;;;24.10;99.90;;;;;;6247498;28;83906;-70
2023/07/30 19:43:02;;;;;;;2.47;1.98;;;24.10;99.90;;;;;;6231279;28;82968;-70
2023/07/30 19:46:08;;;;;;;3.35;2.13;;;24.00;99.90;;;;;;6248888;28;82918;-70
2023/07/30 19:49:14;;;;;;;2.55;2.20;;;24.10;99.90;;;;;;6234767;28;82919;-70
2023/07/30 19:52:18;;;;;;;2.92;1.80;;;24.10;99.90;;;;;;6246982;28;82918;-71
2023/07/30 19:55:21;;;;;;;2.03;1.75;;;24.00;99.90;;;;;;6250212;28;81925;-71
2023/07/30 19:58:30;;;;;;;3.08;2.00;;;24.00;99.90;;;;;;6240382;27;83289;-70
2023/07/30 20:01:33;;;;;;;2.45;2.10;;;24.10;99.90;;;;;;6234338;28;81976;-70
2023/07/30 20:04:40;;;;;;;5.00;2.47;;;24.10;99.90;;;;;;6235646;28;83363;-70
2023/07/30 20:07:45;;;;;;;5.22;2.67;;;24.10;99.90;;;;;;6234581;28;82999;-70
2023/07/30 20:10:49;;;;;;;3.40;2.28;;;24.10;99.90;;;;;;6223857;28;82103;-70
2023/07/30 20:13:52;;;;;;;3.30;2.10;;;24.00;99.90;;;;;;6235313;28;82933;-70
2023/07/30 20:16:56;;;;;;;2.42;2.10;;;24.10;99.90;;;;;;6223478;27;83495;-70
2023/07/30 20:20:01;;;;;;;2.85;2.10;;;24.00;99.90;;;;;;6242157;28;83264;-71
2023/07/30 20:23:05;;;;;;;2.97;2.15;;;24.00;99.90;;;;;;6247901;27;82977;-70
2023/07/30 20:26:15;;;;;;;2.30;1.98;;;24.00;99.90;;;;;;6228382;28;83090;-70
2023/07/30 20:29:20;;;;;;;3.28;1.95;;;24.00;99.90;;;;;;6228873;28;83931;-70
2023/07/30 20:32:25;;;;;;;2.13;1.92;;;24.00;99.90;;;;;;6235302;28;83039;-70
2023/07/30 20:35:31;;;;;;;2.80;1.83;;;24.00;99.90;;;;;;6220674;28;83850;-70
2023/07/30 20:38:34;;;;;;;3.88;2.42;;;24.00;99.90;;;;;;6233763;28;81213;-70
2023/07/30 20:41:38;;;;;;;3.05;2.35;;;24.00;99.90;;;;;;6233340;28;83351;-70
2023/07/30 20:44:41;;;;;;;2.65;2.20;;;24.00;99.90;;;;;;6227366;28;83313;-70
2023/07/30 20:47:45;;;;;;;2.78;2.00;;;24.00;99.90;;;;;;6224097;28;82995;-70
2023/07/30 20:50:50;;;;;;;2.97;2.25;;;24.00;99.90;;;;;;6231554;28;82998;-70
2023/07/30 20:53:54;;;;;;;2.20;1.98;;;24.00;99.90;;;;;;6233673;28;83455;-70
2023/07/30 20:56:56;;;;;;;2.38;2.03;;;24.10;99.90;;;;;;6234071;28;81981;-70
2023/07/30 20:59:59;;;;;;;3.00;2.30;;;24.00;99.90;;;;;;6232722;28;84235;-70
2023/07/30 21:03:01;;;;;;;2.70;2.30;;;24.00;99.90;;;;;;6233713;28;84165;-70
2023/07/30 21:06:05;;;;;;;4.15;2.72;;;24.00;99.90;;;;;;6234610;28;83914;-71
2023/07/30 21:09:06;;;;;;;3.85;2.55;;;24.10;99.90;;;;;;6234495;28;83288;-70
2023/07/30 21:12:09;;;;;;;3.58;2.40;;;24.00;99.90;;;;;;6223310;28;83259;-70
2023/07/30 21:15:11;;;;;;;2.58;2.17;;;24.00;99.90;;;;;;6234664;28;83889;-70
2023/07/30 21:18:13;;;;;;;3.47;2.22;;;24.00;99.90;;;;;;6234421;28;85062;-70
2023/07/30 21:21:17;;;;;;;3.05;2.20;;;24.00;99.90;;;;;;6239880;28;83983;-71
2023/07/30 21:24:19;;;;;;;4.53;2.70;;;24.00;99.90;;;;;;6238447;27;84137;-70
2023/07/30 21:27:21;;;;;;;5.22;3.00;;;24.00;99.90;;;;;;6232846;28;84020;-71
2023/07/30 21:30:23;;;;;;;4.55;2.72;;;24.00;99.90;;;;;;6233834;28;84055;-70
2023/07/30 21:33:25;;;;;;;2.72;2.28;;;24.00;99.90;;;;;;6235543;28;84088;-70
2023/07/30 21:36:28;;;;;;;2.22;2.00;;;24.00;99.90;;;;;;6221319;28;84796;-70
2023/07/30 21:39:30;;;;;;;2.78;2.17;;;24.00;99.90;;;;;;6253294;28;82174;-70
2023/07/30 21:42:32;;;;;;;2.80;2.38;;;24.00;99.90;;;;;;6223828;27;82905;-70
2023/07/30 21:45:34;;;;;;;2.75;2.15;;;24.00;99.90;;;;;;6244504;28;84126;-70
2023/07/30 21:48:38;;;;;;;4.75;2.63;;;24.00;99.90;;;;;;6241132;28;84928;-70
2023/07/30 21:51:41;;;;;;;4.80;2.80;;;24.00;99.90;;;;;;6232458;28;83958;-70
2023/07/30 21:54:43;;;;;;;3.42;1.98;;;24.00;99.90;;;;;;6234994;28;83933;-70
2023/07/30 21:57:46;;;;;;;2.25;2.00;;;24.00;99.90;;;;;;6246009;28;84459;-70
2023/07/30 22:00:49;;;;;;;2.22;2.03;;;24.00;99.90;;;;;;6233162;28;83945;-70
2023/07/30 22:03:52;;;;;;;2.00;1.80;;;24.00;99.90;;;;;;6224918;28;82814;-71
2023/07/30 22:06:55;;;;;;;2.78;2.20;;;24.00;99.90;;;;;;6219528;28;83956;-70
2023/07/30 22:09:57;;;;;;;3.45;2.20;;;24.00;99.90;;;;;;6224176;28;83219;-70
2023/07/30 22:12:59;;;;;;;4.55;2.60;;;24.00;99.90;;;;;;6230224;28;83993;-70
2023/07/30 22:16:01;;;;;;;4.70;2.70;;;24.00;99.90;;;;;;6233396;28;84329;-70
2023/07/30 22:19:03;;;;;;;2.88;2.15;;;24.00;99.90;;;;;;6236832;28;83928;-70
2023/07/30 22:22:08;;;;;;;2.78;2.13;;;23.90;99.90;;;;;;6239921;27;82884;-70
2023/07/30 22:25:10;;;;;;;2.72;2.10;;;24.00;99.90;;;;;;6235838;28;84076;-70
2023/07/30 22:28:12;;;;;;;2.40;2.08;;;23.90;99.90;;;;;;6226574;28;84030;-70
2023/07/30 22:31:14;;;;;;;2.40;1.90;;;24.00;99.90;;;;;;6247471;27;84361;-69
2023/07/30 22:34:15;;;;;;;2.97;2.13;;;23.90;99.90;;;;;;6243411;28;84342;-70
2023/07/30 22:37:19;;;;;;;3.83;2.47;;;24.00;99.90;;;;;;6228979;28;84051;-70
2023/07/30 22:40:21;;;;;;;4.65;2.63;;;24.00;99.90;;;;;;6225605;28;83372;-69
2023/07/30 22:43:23;;;;;;;4.25;2.47;;;24.00;99.90;;;;;;6237482;28;83006;-71
2023/07/30 22:46:25;;;;;;;3.05;2.08;;;24.00;99.90;;;;;;6214692;28;84155;-70
2023/07/30 22:49:27;;;;;;;3.50;2.15;;;23.90;99.90;;;;;;6232792;28;85071;-70
2023/07/30 22:52:31;;;;;;;3.90;2.00;;;24.00;99.90;;;;;;6238669;28;84015;-70
2023/07/30 22:55:32;;;;;;;3.28;1.88;;;24.00;99.90;;;;;;6238507;28;83996;-71
2023/07/30 22:58:35;;;;;;;2.50;1.90;;;23.90;99.90;;;;;;6238054;28;83985;-70
2023/07/30 23:01:37;;;;;;;4.75;2.10;;;23.90;99.90;;;;;;6237806;28;84095;-71
2023/07/30 23:04:39;;;;;;;4.05;2.40;;;23.90;99.90;;;;;;6237713;28;84340;-70
2023/07/30 23:07:43;;;;;;;3.70;2.00;;;23.90;99.90;;;;;;6238322;28;84128;-70
2023/07/30 23:10:45;;;;;;;2.95;2.00;;;23.90;99.90;;;;;;6223024;28;83288;-70
2023/07/30 23:13:47;;;;;;;2.67;1.92;;;23.90;99.90;;;;;;6233482;28;82609;-70
2023/07/30 23:16:48;;;;;;;2.17;1.90;;;23.90;99.90;;;;;;6222681;28;84068;-70
2023/07/30 23:19:50;;;;;;;2.40;1.90;;;23.90;99.90;;;;;;6234612;28;84963;-71
2023/07/30 23:22:54;;;;;;;2.05;1.80;;;23.90;99.90;;;;;;6235534;28;85339;-71
2023/07/30 23:25:56;;;;;;;1.90;1.80;;;23.90;99.90;;;;;;6238012;28;82963;-70
2023/07/30 23:28:58;;;;;;;3.97;2.35;;;23.90;99.90;;;;;;6237213;28;84101;-70
2023/07/30 23:32:00;;;;;;;3.70;2.30;;;23.90;99.90;;;;;;6236499;28;83973;-70
